This is the latest recevied weather packets stored in our database for station/object KN6CW-3. If no packets are shown the sender has not sent any weather packets the latest 10 day(s).
| Time | Temp. | Humidity | Pressure | Rain* | Wind** | Luminosity | Snow |
|---|---|---|---|---|---|---|---|
| 1778098254 | 13.89° C | 98% | 1005 hPa | 0.25 mm | - | 86 W/m² | - |
| 1778097954 | 13.89° C | 98% | 1005.2 hPa | 0.25 mm | - | 47 W/m² | - |
| 1778097654 | 13.89° C | 98% | 1005.2 hPa | 0.25 mm | - | 49 W/m² | - |
| 1778097354 | 13.89° C | 99% | 1005.3 hPa | 0.25 mm | - | 37 W/m² | - |
| 1778097054 | 13.89° C | 98% | 1005.2 hPa | 0.25 mm | - | 47 W/m² | - |
| 1778096753 | 13.89° C | 98% | 1005.2 hPa | 0.25 mm | - | 39 W/m² | - |
| 1778096453 | 13.89° C | 98% | 1005.3 hPa | 0.25 mm | - | 39 W/m² | - |
| 1778096152 | 13.89° C | 98% | 1005.2 hPa | 0.25 mm | - | 65 W/m² | - |
| 1778095852 | 13.89° C | 98% | 1005.4 hPa | 0.25 mm | - | 53 W/m² | - |
| 1778095552 | 13.89° C | 98% | 1005.3 hPa | 0.25 mm | - | 56 W/m² | - |
| 1778095252 | 13.89° C | 98% | 1005.4 hPa | 0.51 mm | - | 46 W/m² | - |
| 1778094951 | 13.89° C | 98% | 1005.5 hPa | 0.51 mm | - | 33 W/m² | - |
| 1778094651 | 13.89° C | 98% | 1005.5 hPa | 0.76 mm | - | 65 W/m² | - |
| 1778094351 | 13.89° C | 98% | 1005.4 hPa | 1.02 mm | - | 72 W/m² | - |
| 1778094050 | 13.89° C | 98% | 1005.5 hPa | 1.27 mm | - | 62 W/m² | - |
| 1778093750 | 13.33° C | 98% | 1005.5 hPa | 1.27 mm | - | 104 W/m² | - |
| 1778093450 | 13.33° C | 98% | 1005.4 hPa | 1.52 mm | - | 77 W/m² | - |
| 1778093150 | 13.89° C | 98% | 1005.5 hPa | 1.78 mm | - | 60 W/m² | - |
| 1778092849 | 13.33° C | 98% | 1005.6 hPa | 2.03 mm | - | 54 W/m² | - |
| 1778092550 | 13.33° C | 98% | 1005.7 hPa | 2.29 mm | - | 35 W/m² | - |
| 1778092249 | 13.33° C | 98% | 1005.8 hPa | 2.29 mm | - | 37 W/m² | - |
| 1778091948 | 13.33° C | 98% | 1005.7 hPa | 2.29 mm | - | 63 W/m² | - |
| 1778091648 | 13.33° C | 98% | 1005.7 hPa | 2.29 mm | - | 102 W/m² | - |
| 1778091348 | 13.33° C | 98% | 1005.8 hPa | 2.29 mm | - | 77 W/m² | - |
| 1778091047 | 13.33° C | 98% | 1005.8 hPa | 2.29 mm | - | 91 W/m² | - |
* Rain latest hour (hover to see other rain measurements)
** Current wind speed in m/s (hover to see current wind gust speed)